Time;durP1;ratioP1;P1;durP2;ratioP2;P2;SDS_P1;SDS_P2;PMS_P1;PMS_P2;Temp;Humidity;BMP_temperature;BMP_pressure;BME280_temperature;BME280_humidity;BME280_pressure;Samples;Min_cycle;Max_cycle;Signal;HPM_P1;HPM_P2
2023/06/25 00:01:47;;;;;;;4.28;3.83;;;21.10;57.50;;;;;;898925;155;27423;-75
2023/06/25 00:04:13;;;;;;;4.67;4.00;;;21.00;57.60;;;;;;898295;155;27515;-75
2023/06/25 00:06:40;;;;;;;4.28;3.92;;;21.00;57.70;;;;;;898785;155;27448;-75
2023/06/25 00:09:07;;;;;;;6.33;4.10;;;20.90;57.80;;;;;;899237;155;27475;-75
2023/06/25 00:11:33;;;;;;;4.17;3.87;;;20.90;57.80;;;;;;895285;155;27360;-75
2023/06/25 00:14:00;;;;;;;4.05;3.67;;;20.90;58.00;;;;;;893688;155;27407;-75
2023/06/25 00:16:29;;;;;;;5.15;4.42;;;20.90;58.20;;;;;;899242;155;27363;-74
2023/06/25 00:18:53;;;;;;;5.17;4.35;;;20.80;58.40;;;;;;898444;155;27398;-75
2023/06/25 00:21:20;;;;;;;5.20;4.70;;;20.80;58.50;;;;;;897927;155;27344;-75
2023/06/25 00:23:46;;;;;;;4.65;4.25;;;20.70;58.60;;;;;;898714;154;27420;-75
2023/06/25 00:26:13;;;;;;;4.17;3.58;;;20.70;58.70;;;;;;898191;155;27475;-75
2023/06/25 00:28:39;;;;;;;4.87;4.33;;;20.60;58.80;;;;;;898743;155;27386;-75
2023/06/25 00:31:06;;;;;;;4.17;3.77;;;20.60;59.00;;;;;;894743;156;27450;-75
2023/06/25 00:33:33;;;;;;;4.70;4.37;;;20.50;59.00;;;;;;898480;154;27455;-75
2023/06/25 00:35:59;;;;;;;4.87;4.45;;;20.50;59.10;;;;;;898718;155;27375;-75
2023/06/25 00:38:26;;;;;;;4.75;4.28;;;20.50;59.20;;;;;;896540;155;27412;-75
2023/06/25 00:40:52;;;;;;;4.30;4.00;;;20.50;59.40;;;;;;898503;154;27386;-75
2023/06/25 00:43:21;;;;;;;5.08;4.35;;;20.40;59.40;;;;;;899745;155;27336;-75
2023/06/25 00:45:46;;;;;;;4.37;3.98;;;20.40;59.50;;;;;;900726;154;27359;-75
2023/06/25 00:48:12;;;;;;;4.95;4.50;;;20.40;59.60;;;;;;896207;155;27982;-75
2023/06/25 00:50:39;;;;;;;5.62;4.58;;;20.40;59.70;;;;;;899312;155;27374;-75
2023/06/25 00:53:08;;;;;;;5.00;4.20;;;20.30;59.80;;;;;;896914;155;27455;-75
2023/06/25 00:55:32;;;;;;;5.12;4.62;;;20.30;59.90;;;;;;899180;155;27388;-75
2023/06/25 00:58:00;;;;;;;4.62;4.22;;;20.20;60.00;;;;;;898713;155;27457;-75
2023/06/25 01:00:27;;;;;;;5.40;4.90;;;20.20;60.00;;;;;;898822;155;27424;-74
2023/06/25 01:03:16;;;;;;;4.70;4.30;;;20.20;60.20;;;;;;898326;155;27396;-74
2023/06/25 01:05:51;;;;;;;5.37;4.87;;;20.10;60.30;;;;;;899262;155;27361;-74
2023/06/25 01:08:18;;;;;;;5.28;4.78;;;20.10;60.20;;;;;;899299;155;27413;-75
2023/06/25 01:10:44;;;;;;;4.47;4.08;;;20.10;60.50;;;;;;900408;154;27484;-75
2023/06/25 01:13:11;;;;;;;4.70;4.30;;;20.00;60.80;;;;;;897707;155;27512;-74
2023/06/25 01:15:37;;;;;;;4.90;4.50;;;20.00;61.00;;;;;;889111;155;27345;-75
2023/06/25 01:18:04;;;;;;;4.37;4.03;;;20.00;61.20;;;;;;895819;155;27497;-75
2023/06/25 01:20:31;;;;;;;4.80;4.40;;;20.00;61.30;;;;;;900418;155;27466;-75
2023/06/25 01:22:57;;;;;;;5.03;4.50;;;19.90;61.40;;;;;;897339;155;27380;-75
2023/06/25 01:25:24;;;;;;;4.90;4.25;;;19.90;61.50;;;;;;898991;155;27499;-75
2023/06/25 01:27:50;;;;;;;4.47;4.08;;;19.90;61.70;;;;;;897902;155;27450;-75
2023/06/25 01:30:17;;;;;;;5.05;4.55;;;19.90;61.80;;;;;;900577;155;27401;-75
2023/06/25 01:32:44;;;;;;;4.80;4.40;;;19.90;62.10;;;;;;898492;155;27430;-75
2023/06/25 01:35:13;;;;;;;4.53;4.15;;;19.80;62.10;;;;;;899449;155;27466;-75
2023/06/25 01:37:39;;;;;;;5.90;4.47;;;19.80;62.20;;;;;;898944;155;27443;-75
2023/06/25 01:40:07;;;;;;;4.55;4.20;;;19.80;62.20;;;;;;899056;154;27406;-75
2023/06/25 01:42:33;;;;;;;4.95;4.45;;;19.80;62.30;;;;;;898428;155;27524;-75
2023/06/25 01:44:59;;;;;;;4.67;4.28;;;19.80;62.40;;;;;;898317;155;27372;-75
2023/06/25 01:47:26;;;;;;;4.92;4.45;;;19.80;62.50;;;;;;900825;155;27452;-75
2023/06/25 01:49:52;;;;;;;4.92;4.53;;;19.70;63.00;;;;;;897773;155;27426;-74
2023/06/25 01:52:19;;;;;;;5.25;4.58;;;19.70;62.70;;;;;;898992;155;27513;-75
2023/06/25 01:54:46;;;;;;;5.70;5.20;;;19.70;62.90;;;;;;898573;155;27353;-75
2023/06/25 01:57:12;;;;;;;5.33;4.83;;;19.70;63.30;;;;;;898621;155;27375;-75
2023/06/25 01:59:39;;;;;;;6.40;4.90;;;19.70;63.50;;;;;;899323;155;27835;-75
2023/06/25 02:02:05;;;;;;;5.22;4.78;;;19.70;63.60;;;;;;898872;155;27402;-74
2023/06/25 02:04:32;;;;;;;5.45;4.95;;;19.70;63.80;;;;;;898843;155;27531;-73
2023/06/25 02:06:58;;;;;;;5.03;4.62;;;19.60;63.90;;;;;;897927;155;27328;-73
2023/06/25 02:09:25;;;;;;;5.92;5.42;;;19.60;63.90;;;;;;899465;155;27388;-73
2023/06/25 02:11:52;;;;;;;5.25;4.83;;;19.60;63.80;;;;;;897466;155;27486;-73
2023/06/25 02:14:18;;;;;;;5.05;4.65;;;19.50;63.80;;;;;;899185;155;27432;-73
2023/06/25 02:16:45;;;;;;;5.92;4.72;;;19.50;63.80;;;;;;898133;155;27375;-73
2023/06/25 02:19:11;;;;;;;5.65;5.15;;;19.50;64.00;;;;;;899092;155;27373;-73
2023/06/25 02:21:38;;;;;;;7.12;5.72;;;19.40;64.10;;;;;;900015;154;27583;-73
2023/06/25 02:24:05;;;;;;;5.15;4.65;;;19.40;64.20;;;;;;898968;155;27482;-72
2023/06/25 02:26:31;;;;;;;5.25;4.58;;;19.30;64.30;;;;;;898575;155;27415;-73
2023/06/25 02:28:58;;;;;;;5.80;4.72;;;19.30;64.40;;;;;;899398;155;27382;-73
2023/06/25 02:31:24;;;;;;;5.10;4.70;;;19.30;64.40;;;;;;899510;155;27390;-75
2023/06/25 02:33:51;;;;;;;5.80;5.30;;;19.20;64.50;;;;;;900515;155;27776;-75
2023/06/25 02:36:18;;;;;;;5.25;4.80;;;19.20;64.60;;;;;;898298;155;27585;-75
2023/06/25 02:38:44;;;;;;;5.00;4.60;;;19.20;65.00;;;;;;898655;155;27410;-75
2023/06/25 02:41:11;;;;;;;5.17;4.78;;;19.10;65.10;;;;;;896675;155;27321;-75
2023/06/25 02:43:37;;;;;;;5.35;4.85;;;19.10;65.20;;;;;;899912;155;27471;-75
2023/06/25 02:46:04;;;;;;;5.22;4.72;;;19.00;65.30;;;;;;898058;155;27399;-75
2023/06/25 02:48:30;;;;;;;5.35;4.65;;;19.00;65.60;;;;;;899226;155;27410;-75
2023/06/25 02:50:57;;;;;;;7.22;6.53;;;19.00;65.70;;;;;;899262;155;27535;-75
2023/06/25 02:53:24;;;;;;;5.08;4.67;;;19.00;65.80;;;;;;898832;155;27466;-75
2023/06/25 02:55:50;;;;;;;5.35;4.95;;;18.90;65.90;;;;;;900276;155;27491;-75
2023/06/25 02:58:17;;;;;;;5.35;4.85;;;18.90;65.90;;;;;;899701;155;27404;-75
2023/06/25 03:00:43;;;;;;;5.42;4.95;;;18.90;66.00;;;;;;900494;155;27543;-75
2023/06/25 03:03:10;;;;;;;5.45;4.95;;;18.90;66.30;;;;;;898742;155;27489;-75
2023/06/25 03:05:37;;;;;;;5.35;4.85;;;18.80;66.40;;;;;;899519;155;27425;-75
2023/06/25 03:08:03;;;;;;;7.50;5.10;;;18.80;66.40;;;;;;898677;155;27302;-75
2023/06/25 03:10:30;;;;;;;5.47;5.08;;;18.80;66.70;;;;;;896366;155;27423;-75
2023/06/25 03:12:56;;;;;;;5.87;5.37;;;18.70;66.80;;;;;;898714;155;27356;-75
2023/06/25 03:15:23;;;;;;;5.15;4.75;;;18.70;66.80;;;;;;900949;155;27329;-75
2023/06/25 03:17:50;;;;;;;5.22;4.83;;;18.70;66.90;;;;;;899357;155;27392;-75
2023/06/25 03:20:16;;;;;;;5.58;5.08;;;18.60;67.00;;;;;;898595;155;27408;-75
2023/06/25 03:22:43;;;;;;;5.58;5.08;;;18.60;67.20;;;;;;900298;155;27528;-75
2023/06/25 03:25:09;;;;;;;5.80;5.30;;;18.60;67.50;;;;;;898974;155;27401;-75
2023/06/25 03:27:36;;;;;;;5.40;4.92;;;18.60;67.60;;;;;;901159;155;27469;-74
2023/06/25 03:30:02;;;;;;;5.05;4.65;;;18.50;67.80;;;;;;900128;155;27382;-74
2023/06/25 03:32:29;;;;;;;5.60;5.10;;;18.50;67.90;;;;;;898533;155;27411;-75
2023/06/25 03:34:56;;;;;;;5.58;5.08;;;18.50;68.10;;;;;;898990;155;27483;-75
2023/06/25 03:37:22;;;;;;;5.22;4.75;;;18.50;68.10;;;;;;899259;155;27384;-75
2023/06/25 03:39:49;;;;;;;5.30;4.80;;;18.50;68.40;;;;;;898485;155;27386;-75
2023/06/25 03:42:15;;;;;;;5.62;5.12;;;18.50;68.30;;;;;;899416;155;27390;-75
2023/06/25 03:44:42;;;;;;;5.65;5.12;;;18.50;68.40;;;;;;899102;155;27502;-75
2023/06/25 03:47:09;;;;;;;5.80;5.22;;;18.50;68.50;;;;;;898921;155;27408;-75
2023/06/25 03:49:35;;;;;;;5.35;4.92;;;18.50;68.70;;;;;;900681;155;27406;-75
2023/06/25 03:52:02;;;;;;;5.22;4.72;;;18.60;69.00;;;;;;900804;155;27440;-74
2023/06/25 03:54:28;;;;;;;5.60;5.10;;;18.60;69.00;;;;;;897214;155;27513;-74
2023/06/25 03:56:55;;;;;;;5.40;4.83;;;18.60;69.20;;;;;;899694;155;27389;-76
2023/06/25 03:59:22;;;;;;;5.47;5.05;;;18.70;69.40;;;;;;900036;155;27406;-76
2023/06/25 04:01:48;;;;;;;6.70;4.92;;;18.70;69.40;;;;;;898862;155;27386;-76
2023/06/25 04:04:15;;;;;;;5.53;5.03;;;18.80;69.50;;;;;;900123;155;27488;-76
2023/06/25 04:06:41;;;;;;;5.65;4.45;;;18.80;69.60;;;;;;900531;155;27491;-75
2023/06/25 04:09:08;;;;;;;7.70;5.37;;;18.80;69.50;;;;;;900811;155;27908;-76
2023/06/25 04:11:35;;;;;;;5.95;5.35;;;18.90;69.60;;;;;;898220;155;27470;-76
2023/06/25 04:14:01;;;;;;;6.15;5.62;;;19.00;69.60;;;;;;899610;155;27422;-76
2023/06/25 04:16:28;;;;;;;5.42;4.92;;;19.00;69.80;;;;;;898939;155;27366;-76
2023/06/25 04:18:54;;;;;;;5.15;4.75;;;19.10;69.80;;;;;;899493;155;27532;-76
2023/06/25 04:21:21;;;;;;;5.67;5.20;;;19.20;69.90;;;;;;898140;155;27455;-76
2023/06/25 04:23:47;;;;;;;6.65;5.28;;;19.20;69.80;;;;;;898151;155;27400;-76
2023/06/25 04:26:14;;;;;;;5.50;5.00;;;19.30;69.90;;;;;;896151;154;27380;-75
2023/06/25 04:28:41;;;;;;;5.90;5.40;;;19.40;69.80;;;;;;900583;154;27413;-75
2023/06/25 04:31:07;;;;;;;5.80;5.30;;;19.40;70.50;;;;;;898446;155;27433;-75
2023/06/25 04:33:40;;;;;;;5.37;4.97;;;19.50;69.70;;;;;;898418;155;27510;-76
2023/06/25 04:36:00;;;;;;;5.87;5.10;;;19.60;69.70;;;;;;900814;155;27458;-76
2023/06/25 04:38:27;;;;;;;5.50;5.00;;;19.70;69.60;;;;;;898803;155;27464;-76
2023/06/25 04:40:54;;;;;;;5.30;4.80;;;19.80;69.40;;;;;;898870;155;27381;-76
2023/06/25 04:43:20;;;;;;;5.67;4.95;;;19.90;69.40;;;;;;896847;155;27339;-76
2023/06/25 04:45:47;;;;;;;5.30;4.80;;;20.00;69.30;;;;;;897015;155;27388;-76
2023/06/25 04:48:13;;;;;;;5.25;4.80;;;20.20;69.30;;;;;;900278;155;27388;-76
2023/06/25 04:50:40;;;;;;;6.37;5.78;;;20.30;69.20;;;;;;899267;155;27421;-76
2023/06/25 04:53:07;;;;;;;5.50;5.00;;;20.40;69.10;;;;;;897534;155;27528;-76
2023/06/25 04:55:33;;;;;;;6.12;4.92;;;20.50;69.10;;;;;;898647;155;27681;-76
2023/06/25 04:58:00;;;;;;;4.70;4.30;;;20.70;69.20;;;;;;899470;155;27286;-76
2023/06/25 05:00:26;;;;;;;5.45;4.87;;;20.80;69.20;;;;;;899383;155;27439;-76
2023/06/25 05:02:53;;;;;;;4.83;4.47;;;21.10;69.70;;;;;;897709;155;27401;-76
2023/06/25 05:05:19;;;;;;;4.28;3.95;;;21.40;70.50;;;;;;899085;154;27318;-76
2023/06/25 05:07:47;;;;;;;4.60;4.20;;;21.90;71.20;;;;;;899883;155;27366;-76
2023/06/25 05:10:13;;;;;;;4.03;3.72;;;22.50;71.50;;;;;;898126;155;27454;-76
2023/06/25 05:12:39;;;;;;;4.65;4.30;;;23.20;71.40;;;;;;898211;155;27448;-76
2023/06/25 05:15:06;;;;;;;4.15;3.85;;;24.10;70.60;;;;;;898871;155;27395;-76
2023/06/25 05:17:33;;;;;;;4.12;3.83;;;24.90;69.50;;;;;;896936;155;27453;-76
2023/06/25 05:19:59;;;;;;;4.00;3.70;;;25.80;68.20;;;;;;898132;155;27514;-76
2023/06/25 05:22:26;;;;;;;4.03;3.72;;;26.60;66.90;;;;;;897485;155;27437;-76
2023/06/25 05:24:52;;;;;;;4.00;3.70;;;27.50;65.30;;;;;;898857;155;27423;-76
2023/06/25 05:27:19;;;;;;;3.75;3.45;;;28.40;63.80;;;;;;897265;155;27393;-76
2023/06/25 05:29:45;;;;;;;4.12;3.83;;;29.20;62.20;;;;;;899202;155;27387;-76
2023/06/25 05:32:12;;;;;;;3.65;3.45;;;30.10;60.70;;;;;;899438;155;27593;-77
2023/06/25 05:34:39;;;;;;;7.60;3.40;;;30.80;59.20;;;;;;899872;155;27553;-77
2023/06/25 05:37:05;;;;;;;3.45;3.15;;;31.60;58.20;;;;;;898482;155;27932;-77
2023/06/25 05:39:32;;;;;;;3.50;3.20;;;32.30;57.20;;;;;;900409;155;27377;-77
2023/06/25 05:41:59;;;;;;;3.52;3.30;;;33.00;56.00;;;;;;897766;156;26223;-75
2023/06/25 05:44:25;;;;;;;3.30;3.10;;;33.70;54.80;;;;;;898121;155;27410;-75
2023/06/25 05:46:52;;;;;;;3.87;3.47;;;34.40;53.80;;;;;;900467;155;26349;-75
2023/06/25 05:49:18;;;;;;;3.52;3.30;;;35.00;52.90;;;;;;899764;155;27503;-75
2023/06/25 05:51:45;;;;;;;3.15;2.95;;;35.70;51.80;;;;;;899745;155;27674;-75
2023/06/25 05:54:11;;;;;;;3.05;2.85;;;36.20;50.70;;;;;;899606;155;26354;-75
2023/06/25 05:56:38;;;;;;;3.37;3.17;;;36.80;49.90;;;;;;899432;155;27451;-75
2023/06/25 05:59:05;;;;;;;3.27;3.08;;;37.40;49.00;;;;;;899747;155;26345;-75
2023/06/25 06:01:31;;;;;;;3.45;3.15;;;37.90;48.70;;;;;;899827;155;26262;-75
2023/06/25 06:03:58;;;;;;;3.72;3.42;;;38.40;47.20;;;;;;898516;155;26257;-75
2023/06/25 06:06:24;;;;;;;3.15;2.85;;;38.90;46.30;;;;;;898214;155;26301;-75
2023/06/25 06:08:51;;;;;;;3.17;2.98;;;39.30;45.50;;;;;;897287;155;26308;-75
2023/06/25 06:11:18;;;;;;;3.75;3.45;;;39.60;44.60;;;;;;898320;155;26269;-75
2023/06/25 06:13:44;;;;;;;3.65;2.90;;;40.10;44.10;;;;;;900972;155;26268;-75
2023/06/25 06:16:11;;;;;;;3.37;3.02;;;40.50;43.30;;;;;;900300;155;26293;-76
2023/06/25 06:18:37;;;;;;;3.50;3.20;;;40.80;42.60;;;;;;899472;155;26431;-76
2023/06/25 06:21:04;;;;;;;5.17;3.30;;;41.10;41.80;;;;;;898555;155;26427;-76
2023/06/25 06:23:31;;;;;;;3.17;2.98;;;41.50;41.10;;;;;;899649;155;26363;-76
2023/06/25 06:25:57;;;;;;;3.45;3.15;;;41.80;40.70;;;;;;899212;155;26285;-76
2023/06/25 06:28:24;;;;;;;3.15;2.77;;;42.10;40.20;;;;;;898842;155;26292;-76
2023/06/25 06:30:50;;;;;;;3.20;3.00;;;42.30;39.80;;;;;;899114;155;26393;-76
2023/06/25 06:33:17;;;;;;;2.95;2.67;;;42.60;39.00;;;;;;898318;155;26377;-76
2023/06/25 06:35:43;;;;;;;2.90;2.70;;;43.00;38.60;;;;;;898732;155;26280;-76
2023/06/25 06:38:10;;;;;;;2.90;2.70;;;43.30;38.10;;;;;;899304;155;26335;-76
2023/06/25 06:40:37;;;;;;;2.70;2.50;;;43.60;37.70;;;;;;898940;155;26332;-76
2023/06/25 06:43:03;;;;;;;2.85;2.65;;;43.90;37.10;;;;;;898884;155;26324;-76
2023/06/25 06:45:30;;;;;;;3.02;2.80;;;44.20;36.60;;;;;;899341;155;26379;-76
2023/06/25 06:47:56;;;;;;;2.75;2.55;;;44.50;36.10;;;;;;899979;155;26241;-76
2023/06/25 06:50:23;;;;;;;2.55;2.37;;;44.80;35.40;;;;;;897927;155;26412;-76
2023/06/25 06:52:50;;;;;;;2.83;2.45;;;45.10;35.10;;;;;;898024;155;26722;-73
2023/06/25 06:55:16;;;;;;;3.12;2.92;;;45.30;34.60;;;;;;898774;155;26290;-74
2023/06/25 06:57:43;;;;;;;2.87;2.67;;;45.50;34.10;;;;;;899120;155;26300;-73
2023/06/25 07:00:09;;;;;;;2.50;2.30;;;45.80;33.90;;;;;;899347;155;26452;-74
2023/06/25 07:02:36;;;;;;;2.67;2.47;;;46.00;33.50;;;;;;899081;155;26526;-74
2023/06/25 07:05:03;;;;;;;2.75;2.55;;;46.30;33.00;;;;;;898356;155;26263;-73
2023/06/25 07:07:29;;;;;;;2.90;2.70;;;46.60;32.60;;;;;;899438;155;26356;-74
2023/06/25 07:09:56;;;;;;;2.42;2.22;;;46.80;32.20;;;;;;896871;155;26409;-73
2023/06/25 07:12:22;;;;;;;2.50;2.30;;;47.00;31.70;;;;;;898562;155;26329;-74
2023/06/25 07:14:49;;;;;;;2.58;2.40;;;47.40;31.40;;;;;;899010;155;26333;-74
2023/06/25 07:17:15;;;;;;;2.20;2.00;;;47.60;30.50;;;;;;898127;155;26230;-74
2023/06/25 07:19:42;;;;;;;2.30;2.20;;;47.80;29.90;;;;;;897318;155;26374;-74
2023/06/25 07:22:09;;;;;;;2.30;2.20;;;47.90;29.40;;;;;;899673;155;26312;-73
2023/06/25 07:24:35;;;;;;;2.30;2.20;;;48.00;29.10;;;;;;899900;155;26452;-73
2023/06/25 07:27:02;;;;;;;2.37;2.27;;;48.10;28.90;;;;;;899351;154;26293;-73
2023/06/25 07:29:28;;;;;;;2.00;1.90;;;48.10;28.70;;;;;;899546;155;26301;-73
2023/06/25 07:31:55;;;;;;;2.72;2.52;;;48.10;28.30;;;;;;899439;155;26370;-73
2023/06/25 07:34:22;;;;;;;2.55;2.40;;;48.10;28.20;;;;;;900002;155;26365;-73
2023/06/25 07:36:48;;;;;;;2.65;2.45;;;48.10;28.00;;;;;;898336;155;26410;-73
2023/06/25 07:39:21;;;;;;;2.58;2.37;;;48.20;27.80;;;;;;898796;154;26285;-73
2023/06/25 07:41:47;;;;;;;2.72;2.42;;;48.20;27.40;;;;;;896183;155;26380;-73
2023/06/25 07:44:14;;;;;;;2.55;2.35;;;48.10;27.30;;;;;;899152;155;26356;-73
2023/06/25 07:46:42;;;;;;;2.40;2.30;;;48.00;27.10;;;;;;899244;155;26335;-73
2023/06/25 07:49:07;;;;;;;2.45;2.35;;;47.90;27.10;;;;;;898380;155;26256;-73
2023/06/25 07:51:34;;;;;;;2.72;2.52;;;47.90;27.00;;;;;;900607;155;26210;-73
2023/06/25 07:54:00;;;;;;;2.67;2.47;;;47.80;27.40;;;;;;899208;155;26382;-74
2023/06/25 07:56:27;;;;;;;3.87;2.55;;;47.80;26.90;;;;;;898682;155;26308;-73
2023/06/25 07:58:53;;;;;;;2.42;2.30;;;47.80;26.90;;;;;;898197;154;26218;-73
2023/06/25 08:01:20;;;;;;;2.90;2.70;;;47.80;26.60;;;;;;900275;155;26320;-73
2023/06/25 08:03:47;;;;;;;2.67;2.47;;;47.90;26.50;;;;;;897945;154;26369;-74
2023/06/25 08:06:13;;;;;;;2.62;2.52;;;47.90;26.70;;;;;;898518;154;26309;-73
2023/06/25 08:08:40;;;;;;;2.70;2.55;;;48.10;26.50;;;;;;899873;155;26305;-73
2023/06/25 08:11:06;;;;;;;2.60;2.40;;;48.20;26.30;;;;;;899504;155;26296;-73
2023/06/25 08:13:33;;;;;;;2.92;2.47;;;48.40;26.20;;;;;;900461;155;26293;-74
2023/06/25 08:16:00;;;;;;;3.30;2.70;;;48.60;26.10;;;;;;897573;154;26231;-74
2023/06/25 08:18:26;;;;;;;2.65;2.45;;;48.90;25.70;;;;;;899556;155;26387;-74
2023/06/25 08:20:53;;;;;;;2.52;2.33;;;49.00;25.50;;;;;;898693;155;26403;-74
2023/06/25 08:23:19;;;;;;;2.37;2.27;;;49.20;25.20;;;;;;899375;155;26350;-73
2023/06/25 08:25:46;;;;;;;2.75;2.55;;;49.30;25.00;;;;;;898256;155;26383;-73
2023/06/25 08:28:12;;;;;;;2.85;2.65;;;49.30;24.80;;;;;;899118;155;26959;-74
2023/06/25 08:30:39;;;;;;;2.80;2.60;;;49.40;24.60;;;;;;899137;155;26562;-73
2023/06/25 08:33:06;;;;;;;2.02;1.92;;;49.50;24.70;;;;;;898503;155;26379;-73
2023/06/25 08:35:32;;;;;;;2.62;2.42;;;49.50;24.50;;;;;;898902;155;26282;-73
2023/06/25 08:37:59;;;;;;;2.70;2.50;;;49.70;24.50;;;;;;898855;155;26352;-73
2023/06/25 08:40:25;;;;;;;2.37;2.27;;;49.90;24.30;;;;;;898514;154;26303;-73
2023/06/25 08:42:52;;;;;;;2.30;2.20;;;50.00;24.10;;;;;;899017;155;26737;-73
2023/06/25 08:45:19;;;;;;;2.47;2.37;;;50.10;23.90;;;;;;899268;155;26356;-74
2023/06/25 08:47:45;;;;;;;2.47;2.30;;;50.20;23.80;;;;;;899764;155;26297;-73
2023/06/25 08:50:12;;;;;;;2.65;2.45;;;50.40;23.90;;;;;;897749;155;26373;-73
2023/06/25 08:52:38;;;;;;;2.42;2.27;;;50.60;23.60;;;;;;898193;155;26340;-74
2023/06/25 08:55:09;;;;;;;2.50;2.30;;;50.70;23.00;;;;;;900047;155;26449;-74
2023/06/25 08:57:35;;;;;;;2.40;2.25;;;50.80;22.90;;;;;;899454;155;26321;-77
2023/06/25 09:00:01;;;;;;;2.40;2.30;;;51.00;22.90;;;;;;900861;155;26335;-76
2023/06/25 09:02:28;;;;;;;2.22;2.12;;;51.10;23.00;;;;;;901878;155;26325;-77
2023/06/25 09:04:54;;;;;;;2.50;2.30;;;51.20;22.60;;;;;;899853;155;26243;-77
2023/06/25 09:07:21;;;;;;;2.22;2.12;;;51.20;22.50;;;;;;900252;155;26280;-76
2023/06/25 09:09:54;;;;;;;2.55;2.35;;;51.20;22.40;;;;;;899759;155;26390;-77
2023/06/25 09:12:26;;;;;;;2.47;2.37;;;51.20;22.50;;;;;;900580;155;26316;-77
2023/06/25 09:14:53;;;;;;;2.33;2.22;;;51.10;22.50;;;;;;884062;155;26435;-77
2023/06/25 09:17:22;;;;;;;2.40;2.30;;;51.20;22.40;;;;;;899064;155;26353;-77
2023/06/25 09:19:49;;;;;;;2.30;2.20;;;51.30;22.20;;;;;;899129;155;26290;-77
2023/06/25 09:22:16;;;;;;;2.60;2.35;;;51.30;22.50;;;;;;899456;155;26366;-77
2023/06/25 09:24:45;;;;;;;2.20;2.10;;;51.40;22.00;;;;;;900112;155;26470;-77
2023/06/25 09:27:11;;;;;;;2.70;2.50;;;51.40;21.80;;;;;;897932;155;26364;-77
2023/06/25 09:29:38;;;;;;;2.33;2.22;;;51.30;22.00;;;;;;899103;155;26379;-77
2023/06/25 09:32:08;;;;;;;2.00;1.90;;;51.30;21.80;;;;;;899474;155;26254;-77
2023/06/25 09:34:34;;;;;;;2.27;2.17;;;51.30;21.70;;;;;;898218;155;26449;-77
2023/06/25 09:37:03;;;;;;;2.27;2.17;;;51.20;21.80;;;;;;898761;155;26288;-76
2023/06/25 09:39:30;;;;;;;2.50;2.35;;;51.20;21.80;;;;;;898374;155;26301;-76
2023/06/25 09:41:57;;;;;;;2.62;2.42;;;51.10;21.70;;;;;;899230;155;26811;-78
2023/06/25 09:44:23;;;;;;;2.95;2.25;;;51.00;21.60;;;;;;902150;155;27595;-77
2023/06/25 09:46:50;;;;;;;2.10;2.00;;;50.90;21.40;;;;;;900650;155;26337;-77
2023/06/25 09:49:16;;;;;;;2.55;2.45;;;50.70;21.50;;;;;;900693;154;26305;-77
2023/06/25 09:51:48;;;;;;;2.20;2.10;;;50.50;21.40;;;;;;900750;155;26394;-78
2023/06/25 09:54:15;;;;;;;2.55;2.35;;;50.20;21.30;;;;;;900580;155;26361;-78
2023/06/25 09:56:42;;;;;;;2.92;2.20;;;49.70;21.40;;;;;;898279;155;26319;-77
2023/06/25 09:59:08;;;;;;;2.60;2.40;;;49.30;21.60;;;;;;896176;155;26308;-77
2023/06/25 10:01:35;;;;;;;2.72;2.52;;;48.80;21.60;;;;;;898999;155;26299;-76
2023/06/25 10:04:01;;;;;;;2.47;2.30;;;48.30;21.70;;;;;;899390;155;26304;-77
2023/06/25 10:06:28;;;;;;;2.55;2.35;;;47.80;21.90;;;;;;899939;155;26304;-76
2023/06/25 10:08:55;;;;;;;2.50;2.40;;;47.20;22.10;;;;;;900037;155;26281;-77
2023/06/25 10:11:21;;;;;;;2.87;2.72;;;46.70;22.20;;;;;;899856;155;26297;-77
2023/06/25 10:13:48;;;;;;;2.40;2.30;;;46.30;22.40;;;;;;899156;155;26402;-77
2023/06/25 10:16:18;;;;;;;2.92;2.70;;;45.70;22.50;;;;;;899196;154;26428;-77
2023/06/25 10:18:44;;;;;;;2.92;2.72;;;45.10;22.60;;;;;;897186;155;26390;-77
2023/06/25 10:21:10;;;;;;;3.08;2.83;;;44.60;23.00;;;;;;900960;155;26282;-77
2023/06/25 10:23:37;;;;;;;3.02;2.83;;;44.10;23.10;;;;;;897996;155;26309;-77
2023/06/25 10:26:04;;;;;;;3.30;2.95;;;43.60;23.30;;;;;;898330;155;26355;-77
2023/06/25 10:28:34;;;;;;;3.10;2.90;;;43.20;23.40;;;;;;899149;155;26438;-77
2023/06/25 10:30:59;;;;;;;3.37;3.10;;;42.80;23.40;;;;;;900628;154;27507;-77
2023/06/25 10:33:26;;;;;;;3.15;2.95;;;42.30;23.60;;;;;;899792;155;26352;-76
2023/06/25 10:35:55;;;;;;;3.22;3.00;;;41.80;24.00;;;;;;899334;154;27506;-77
2023/06/25 10:38:22;;;;;;;3.52;3.25;;;41.40;24.30;;;;;;899913;155;26279;-77
2023/06/25 10:40:49;;;;;;;3.35;3.05;;;41.00;24.60;;;;;;898681;155;26459;-76
2023/06/25 10:43:20;;;;;;;3.25;3.05;;;40.60;25.00;;;;;;899505;155;26330;-77
2023/06/25 10:45:53;;;;;;;3.37;3.08;;;40.30;25.10;;;;;;897377;155;26323;-77
2023/06/25 10:48:20;;;;;;;3.15;2.92;;;40.00;25.10;;;;;;899886;155;27379;-77
2023/06/25 10:50:47;;;;;;;3.15;2.95;;;39.60;25.00;;;;;;898753;154;26280;-77
2023/06/25 10:53:13;;;;;;;3.27;3.08;;;39.20;25.30;;;;;;900114;155;27484;-76
2023/06/25 10:55:41;;;;;;;3.15;2.87;;;38.80;25.50;;;;;;897953;155;27377;-77
2023/06/25 10:58:06;;;;;;;3.10;2.90;;;38.40;25.70;;;;;;898348;155;27409;-77
2023/06/25 11:00:33;;;;;;;3.10;2.90;;;38.00;25.90;;;;;;899837;155;27521;-76
2023/06/25 11:02:59;;;;;;;3.47;3.17;;;37.60;26.00;;;;;;899341;155;27423;-76
2023/06/25 11:05:33;;;;;;;3.40;3.10;;;37.30;26.90;;;;;;899042;155;27395;-76
2023/06/25 11:07:58;;;;;;;3.52;3.22;;;37.00;26.70;;;;;;899541;154;27392;-76
2023/06/25 11:10:25;;;;;;;3.15;2.92;;;36.70;26.90;;;;;;893396;157;27372;-76
2023/06/25 11:12:52;;;;;;;3.02;2.83;;;36.50;27.20;;;;;;898068;155;27884;-76
2023/06/25 11:15:18;;;;;;;3.33;3.12;;;36.30;27.30;;;;;;891475;155;27428;-78
2023/06/25 11:17:45;;;;;;;3.35;3.15;;;36.20;27.60;;;;;;899845;155;27387;-78
2023/06/25 11:20:11;;;;;;;3.47;3.27;;;36.10;27.60;;;;;;900290;155;28139;-77
2023/06/25 11:22:42;;;;;;;3.40;3.20;;;36.00;27.70;;;;;;898357;155;27393;-78
2023/06/25 11:25:08;;;;;;;3.00;2.80;;;36.00;27.90;;;;;;871318;160;27517;-79
2023/06/25 11:27:34;;;;;;;3.30;3.10;;;35.80;27.80;;;;;;870251;160;27410;-77
2023/06/25 11:30:04;;;;;;;3.20;3.00;;;35.70;27.90;;;;;;870638;160;27457;-78
2023/06/25 11:32:30;;;;;;;3.00;2.80;;;35.60;28.00;;;;;;870230;160;27403;-78
2023/06/25 11:34:57;;;;;;;3.40;3.12;;;35.40;28.10;;;;;;870632;160;27821;-77
2023/06/25 11:37:26;;;;;;;3.45;3.15;;;35.20;28.30;;;;;;870012;160;27516;-78
2023/06/25 11:39:50;;;;;;;3.25;3.05;;;35.20;28.40;;;;;;868927;160;27834;-78
2023/06/25 11:42:16;;;;;;;2.95;2.75;;;35.00;28.50;;;;;;871201;160;27424;-78
2023/06/25 11:44:43;;;;;;;3.70;3.40;;;34.90;28.90;;;;;;867599;160;27400;-77
2023/06/25 11:47:10;;;;;;;3.20;2.90;;;34.90;28.80;;;;;;900456;155;27403;-78
2023/06/25 11:49:36;;;;;;;3.37;3.17;;;34.80;28.80;;;;;;900051;155;27372;-77
2023/06/25 11:52:03;;;;;;;3.52;3.20;;;34.70;28.80;;;;;;898012;154;27467;-77
2023/06/25 11:54:29;;;;;;;3.22;3.02;;;34.70;29.10;;;;;;899977;155;27448;-78
2023/06/25 11:56:56;;;;;;;3.25;3.05;;;34.60;29.10;;;;;;898151;155;27409;-77
2023/06/25 11:59:23;;;;;;;3.30;3.00;;;34.50;29.00;;;;;;899462;155;27478;-77
2023/06/25 12:01:49;;;;;;;3.02;2.83;;;34.50;29.00;;;;;;898020;155;27432;-78
2023/06/25 12:04:17;;;;;;;3.47;3.17;;;34.40;29.10;;;;;;899044;155;27486;-78
2023/06/25 12:06:42;;;;;;;3.40;3.20;;;34.30;29.10;;;;;;899617;155;27387;-78
2023/06/25 12:09:09;;;;;;;3.22;3.02;;;34.20;29.10;;;;;;898892;155;27445;-79
2023/06/25 12:11:37;;;;;;;3.45;3.15;;;34.10;29.20;;;;;;899014;155;27785;-78
2023/06/25 12:14:02;;;;;;;2.90;2.70;;;34.10;29.20;;;;;;897079;155;27436;-79
2023/06/25 12:16:29;;;;;;;2.90;2.70;;;34.00;29.10;;;;;;899151;155;27348;-79
2023/06/25 12:18:56;;;;;;;3.17;2.98;;;33.90;29.30;;;;;;898157;155;27427;-80
2023/06/25 12:21:22;;;;;;;2.95;2.70;;;33.90;29.40;;;;;;898063;155;27386;-79
2023/06/25 12:23:48;;;;;;;3.75;2.80;;;33.80;29.40;;;;;;899550;155;27475;-79
2023/06/25 12:26:15;;;;;;;3.35;3.15;;;33.80;29.50;;;;;;899103;155;27471;-79
2023/06/25 12:28:42;;;;;;;3.20;3.00;;;33.80;29.80;;;;;;898608;155;27383;-78
2023/06/25 12:31:08;;;;;;;2.95;2.75;;;33.80;29.70;;;;;;897537;155;27390;-78
2023/06/25 12:33:35;;;;;;;2.80;2.60;;;33.80;29.80;;;;;;899745;155;27412;-79
2023/06/25 12:36:01;;;;;;;3.30;3.00;;;33.70;29.70;;;;;;899788;155;27355;-78
2023/06/25 12:38:28;;;;;;;3.10;2.90;;;33.70;29.80;;;;;;899614;155;27322;-78
2023/06/25 12:40:56;;;;;;;3.17;2.87;;;33.70;29.90;;;;;;900853;154;27398;-78
2023/06/25 12:43:21;;;;;;;3.20;3.00;;;33.70;29.90;;;;;;900180;155;27616;-78
2023/06/25 12:45:48;;;;;;;2.95;2.75;;;33.70;29.90;;;;;;899365;154;27410;-78